createdAt,value
2019-04-30T00:00:06.209Z,1.00
2019-04-30T00:02:40.516Z,0.93
2019-04-30T00:05:14.579Z,1.00
2019-04-30T00:07:41.178Z,1.13
2019-04-30T00:10:10.714Z,1.00
2019-04-30T00:12:40.038Z,1.10
2019-04-30T00:15:10.953Z,1.20
2019-04-30T00:17:40.706Z,0.67
2019-04-30T00:20:10.755Z,1.00
2019-04-30T00:22:47.065Z,0.93
2019-04-30T00:25:11.288Z,1.07
2019-04-30T00:27:40.697Z,0.90
2019-04-30T00:30:11.052Z,1.10
2019-04-30T00:32:43.831Z,1.20
2019-04-30T00:35:15.515Z,1.10
2019-04-30T00:37:42.754Z,1.03
2019-04-30T00:40:12.568Z,0.93
2019-04-30T00:42:43.036Z,1.07
2019-04-30T00:45:12.468Z,1.10
2019-04-30T00:47:44.532Z,0.80
2019-04-30T00:50:15.987Z,1.00
2019-04-30T00:52:45.783Z,1.20
2019-04-30T00:55:15.501Z,1.20
2019-04-30T00:57:47.393Z,1.10
2019-04-30T01:00:25.359Z,0.73
2019-04-30T01:03:00.958Z,0.80
2019-04-30T01:05:28.255Z,0.87
2019-04-30T01:07:57.663Z,1.00
2019-04-30T01:10:28.401Z,0.70
2019-04-30T01:13:01.849Z,0.80
2019-04-30T01:15:29.275Z,1.03
2019-04-30T01:17:59.413Z,0.93
2019-04-30T01:20:32.670Z,1.00
2019-04-30T01:23:03.172Z,1.03
2019-04-30T01:25:32.275Z,0.97
2019-04-30T01:28:02.155Z,0.90
2019-04-30T01:30:31.749Z,0.83
2019-04-30T01:33:01.230Z,0.80
2019-04-30T01:35:32.680Z,1.20
2019-04-30T01:38:03.960Z,0.80
2019-04-30T01:40:32.774Z,0.90
2019-04-30T01:43:02.149Z,0.97
2019-04-30T01:45:31.802Z,1.00
2019-04-30T01:48:08.572Z,0.90
2019-04-30T01:50:33.738Z,1.77
2019-04-30T01:53:04.799Z,0.93
2019-04-30T01:55:45.539Z,0.93
2019-04-30T01:58:49.462Z,0.90
2019-04-30T02:01:21.374Z,0.80
2019-04-30T02:03:50.836Z,0.90
2019-04-30T02:06:20.318Z,0.87
2019-04-30T02:08:49.715Z,0.73
2019-04-30T02:11:19.170Z,0.90
2019-04-30T02:13:49.166Z,0.70
2019-04-30T02:16:21.115Z,0.70
2019-04-30T02:18:50.065Z,0.60
2019-04-30T02:21:19.674Z,0.53
2019-04-30T02:23:49.423Z,0.80
2019-04-30T02:26:18.930Z,0.63
2019-04-30T02:28:49.496Z,0.70
2019-04-30T02:31:22.730Z,1.00
2019-04-30T02:33:52.650Z,0.90
2019-04-30T02:36:43.718Z,0.80
2019-04-30T02:39:13.252Z,0.80
2019-04-30T02:41:44.646Z,0.80
2019-04-30T02:44:14.698Z,0.90
2019-04-30T02:46:46.237Z,1.00
2019-04-30T02:49:20.080Z,0.80
2019-04-30T02:51:50.118Z,1.33
2019-04-30T02:54:39.925Z,2.60
2019-04-30T02:57:13.276Z,8.10
2019-04-30T03:00:00.918Z,4.30
2019-04-30T03:02:31.548Z,2.60
2019-04-30T03:05:00.944Z,1.10
2019-04-30T03:07:30.506Z,0.90
2019-04-30T03:10:00.160Z,0.73
2019-04-30T03:12:33.171Z,0.40
2019-04-30T03:15:01.009Z,0.80
2019-04-30T03:17:50.359Z,0.80
2019-04-30T03:20:36.371Z,0.70
2019-04-30T03:23:05.460Z,0.70
2019-04-30T03:25:34.820Z,1.37
2019-04-30T03:28:04.320Z,0.70
2019-04-30T03:30:33.678Z,1.10
2019-04-30T03:33:03.313Z,1.37
2019-04-30T03:35:32.988Z,0.90
2019-04-30T03:38:02.372Z,0.80
2019-04-30T03:40:31.795Z,1.00
2019-04-30T03:43:03.162Z,0.70
2019-04-30T03:45:32.554Z,0.70
2019-04-30T03:48:03.210Z,1.00
2019-04-30T03:50:48.624Z,0.77
2019-04-30T03:53:03.745Z,0.70
2019-04-30T03:55:33.171Z,0.80
2019-04-30T03:58:02.518Z,1.30
2019-04-30T04:01:02.776Z,1.03
2019-04-30T04:03:34.584Z,1.00
2019-04-30T04:06:24.240Z,0.83
2019-04-30T04:09:00.264Z,0.83
2019-04-30T04:11:33.774Z,1.00
2019-04-30T04:14:03.290Z,0.90
2019-04-30T04:16:32.723Z,0.90
2019-04-30T04:19:02.672Z,1.00
2019-04-30T04:21:32.548Z,0.90
2019-04-30T04:24:02.018Z,0.90
2019-04-30T04:26:31.460Z,0.80
2019-04-30T04:29:00.811Z,0.87
2019-04-30T04:31:30.298Z,0.70
2019-04-30T04:34:00.267Z,0.90
2019-04-30T04:36:30.393Z,0.77
2019-04-30T04:39:00.368Z,0.90
2019-04-30T04:41:30.010Z,0.80
2019-04-30T04:44:00.176Z,1.00
2019-04-30T04:46:30.700Z,0.90
2019-04-30T04:49:00.626Z,0.90
2019-04-30T04:51:37.970Z,1.10
2019-04-30T04:54:03.337Z,1.03
2019-04-30T04:56:44.500Z,1.00
2019-04-30T04:59:13.841Z,0.93
2019-04-30T05:01:43.263Z,1.00
2019-04-30T05:04:12.624Z,1.30
2019-04-30T05:06:42.010Z,1.10
2019-04-30T05:09:11.372Z,1.20
2019-04-30T05:11:40.712Z,1.00
2019-04-30T05:14:10.941Z,0.90
2019-04-30T05:16:41.413Z,0.80
2019-04-30T05:19:10.771Z,0.80
2019-04-30T05:21:44.289Z,1.30
2019-04-30T05:24:11.186Z,1.43
2019-04-30T05:26:40.548Z,0.73
2019-04-30T05:29:09.986Z,0.90
2019-04-30T05:31:39.537Z,0.70
2019-04-30T05:34:10.318Z,0.77
2019-04-30T05:36:40.124Z,0.53
2019-04-30T05:39:09.493Z,0.87
2019-04-30T05:41:41.091Z,0.90
2019-04-30T05:44:10.038Z,1.07
2019-04-30T05:46:40.382Z,0.70
2019-04-30T05:49:09.821Z,0.90
2019-04-30T05:51:39.199Z,0.80
2019-04-30T05:54:09.076Z,0.90
2019-04-30T05:56:39.877Z,0.73
2019-04-30T05:59:09.933Z,0.83
2019-04-30T06:01:39.581Z,0.70
2019-04-30T06:04:09.549Z,0.50
2019-04-30T06:06:39.335Z,0.90
2019-04-30T06:09:28.940Z,0.73
2019-04-30T06:12:05.313Z,0.97
2019-04-30T06:14:48.930Z,0.70
2019-04-30T06:17:16.913Z,0.70
2019-04-30T06:19:46.392Z,0.70
2019-04-30T06:22:16.045Z,0.80
2019-04-30T06:24:45.499Z,0.90
2019-04-30T06:27:14.912Z,0.60
2019-04-30T06:29:44.472Z,0.50
2019-04-30T06:32:13.855Z,0.53
2019-04-30T06:34:44.369Z,0.80
2019-04-30T06:37:13.746Z,0.50
2019-04-30T06:39:43.121Z,0.70
2019-04-30T06:42:13.077Z,0.50
2019-04-30T06:44:43.197Z,0.57
2019-04-30T06:47:13.179Z,0.70
2019-04-30T06:49:42.725Z,0.80
2019-04-30T06:52:19.941Z,0.47
2019-04-30T06:54:44.203Z,0.70
2019-04-30T06:57:13.528Z,0.80
2019-04-30T06:59:42.974Z,0.60
2019-04-30T07:02:12.351Z,0.70
2019-04-30T07:04:41.795Z,0.47
2019-04-30T07:07:14.322Z,0.50
2019-04-30T07:10:00.903Z,0.70
2019-04-30T07:12:48.971Z,0.70
2019-04-30T07:15:19.684Z,0.60
2019-04-30T07:17:49.414Z,0.93
2019-04-30T07:20:19.268Z,0.43
2019-04-30T07:22:53.929Z,0.60
2019-04-30T07:25:20.040Z,0.67
2019-04-30T07:27:50.465Z,0.70
2019-04-30T07:30:20.262Z,0.50
2019-04-30T07:32:49.597Z,0.50
2019-04-30T07:35:19.712Z,0.40
2019-04-30T07:37:49.911Z,0.70
2019-04-30T07:40:19.745Z,0.40
2019-04-30T07:42:49.418Z,0.70
2019-04-30T07:45:19.613Z,0.57
2019-04-30T07:47:49.598Z,0.80
2019-04-30T07:50:21.410Z,0.70
2019-04-30T07:53:01.934Z,0.90
2019-04-30T07:55:21.480Z,0.60
2019-04-30T07:57:50.937Z,0.60
2019-04-30T08:00:20.307Z,0.80
2019-04-30T08:02:59.952Z,1.03
2019-04-30T08:05:33.909Z,0.97
2019-04-30T08:08:20.152Z,1.20
2019-04-30T08:10:34.414Z,0.90
2019-04-30T08:13:10.183Z,1.07
2019-04-30T08:15:34.927Z,1.27
2019-04-30T08:18:05.959Z,0.93
2019-04-30T08:20:35.455Z,1.23
2019-04-30T08:23:16.432Z,1.10
2019-04-30T08:25:36.061Z,0.80
2019-04-30T08:28:05.511Z,0.83
2019-04-30T08:30:34.860Z,0.60
2019-04-30T08:33:04.263Z,0.70
2019-04-30T08:35:33.607Z,0.70
2019-04-30T08:38:02.910Z,0.70
2019-04-30T08:40:32.340Z,1.00
2019-04-30T08:43:01.732Z,0.70
2019-04-30T08:45:34.431Z,0.60
2019-04-30T08:48:02.143Z,0.60
2019-04-30T08:50:31.689Z,0.53
2019-04-30T08:53:01.228Z,0.70
2019-04-30T08:55:30.637Z,0.50
2019-04-30T08:58:09.341Z,0.60
2019-04-30T09:00:31.335Z,0.80
2019-04-30T09:03:01.236Z,0.50
2019-04-30T09:05:49.933Z,0.50
2019-04-30T09:08:19.517Z,0.70
2019-04-30T09:10:49.114Z,0.70
2019-04-30T09:13:19.239Z,0.53
2019-04-30T09:15:49.226Z,0.70
2019-04-30T09:18:19.151Z,0.80
2019-04-30T09:20:49.522Z,0.77
2019-04-30T09:23:19.200Z,0.77
2019-04-30T09:25:49.702Z,0.97
2019-04-30T09:28:19.955Z,0.60
2019-04-30T09:30:49.631Z,0.87
2019-04-30T09:33:19.463Z,0.70
2019-04-30T09:35:49.608Z,0.50
2019-04-30T09:38:19.641Z,0.80
2019-04-30T09:40:50.763Z,0.50
2019-04-30T09:43:20.394Z,0.70
2019-04-30T09:45:49.895Z,0.53
2019-04-30T09:48:19.381Z,0.67
2019-04-30T09:50:49.691Z,0.70
2019-04-30T09:53:20.253Z,0.60
2019-04-30T09:55:50.035Z,0.70
2019-04-30T09:58:21.037Z,0.70
2019-04-30T10:00:50.755Z,0.70
2019-04-30T10:03:21.116Z,0.87
2019-04-30T10:05:51.648Z,0.60
2019-04-30T10:08:21.425Z,0.80
2019-04-30T10:10:59.457Z,0.70
2019-04-30T10:13:28.810Z,0.67
2019-04-30T10:16:26.005Z,0.90
2019-04-30T10:18:55.356Z,0.70
2019-04-30T10:21:24.766Z,0.57
2019-04-30T10:23:54.160Z,0.70
2019-04-30T10:26:23.666Z,0.70
2019-04-30T10:28:54.207Z,0.60
2019-04-30T10:31:23.642Z,0.73
2019-04-30T10:33:53.069Z,0.60
2019-04-30T10:36:22.656Z,0.60
2019-04-30T10:38:52.068Z,0.80
2019-04-30T10:41:21.521Z,0.50
2019-04-30T10:43:50.930Z,0.40
2019-04-30T10:46:20.403Z,0.80
2019-04-30T10:48:49.846Z,0.80
2019-04-30T10:51:19.333Z,0.67
2019-04-30T10:53:50.866Z,0.60
2019-04-30T10:56:19.799Z,0.70
2019-04-30T10:58:49.178Z,0.50
2019-04-30T11:01:19.281Z,0.70
2019-04-30T11:03:48.973Z,0.80
2019-04-30T11:06:19.181Z,0.70
2019-04-30T11:08:49.059Z,0.80
2019-04-30T11:11:18.524Z,0.70
2019-04-30T11:13:47.952Z,0.90
2019-04-30T11:16:18.878Z,0.60
2019-04-30T11:18:48.715Z,0.80
2019-04-30T11:21:19.733Z,0.80
2019-04-30T11:23:49.847Z,0.90
2019-04-30T11:26:20.021Z,0.87
2019-04-30T11:28:49.926Z,1.07
2019-04-30T11:31:50.814Z,0.60
2019-04-30T11:34:20.616Z,1.00
2019-04-30T11:36:50.144Z,0.70
2019-04-30T11:39:21.600Z,1.10
2019-04-30T11:41:51.018Z,0.90
2019-04-30T11:44:30.331Z,0.83
2019-04-30T11:47:34.100Z,0.80
2019-04-30T11:50:04.350Z,1.70
2019-04-30T11:52:33.794Z,0.90
2019-04-30T11:55:03.252Z,1.00
2019-04-30T11:57:32.658Z,0.80
2019-04-30T12:00:01.994Z,1.10
2019-04-30T12:02:39.347Z,1.00
2019-04-30T12:05:11.997Z,0.90
2019-04-30T12:08:00.371Z,0.70
2019-04-30T12:10:43.544Z,0.90
2019-04-30T12:13:29.860Z,0.90
2019-04-30T12:15:59.818Z,0.83
2019-04-30T12:18:29.594Z,1.20
2019-04-30T12:20:58.977Z,1.20
2019-04-30T12:23:28.404Z,0.83
2019-04-30T12:26:01.028Z,1.70
2019-04-30T12:28:29.666Z,0.70
2019-04-30T12:30:59.375Z,0.87
2019-04-30T12:33:28.808Z,0.60
2019-04-30T12:35:59.579Z,0.90
2019-04-30T12:38:29.843Z,0.80
2019-04-30T12:41:00.397Z,0.77
2019-04-30T12:43:29.804Z,0.83
2019-04-30T12:46:03.443Z,0.63
2019-04-30T12:48:37.092Z,0.97
2019-04-30T12:51:45.519Z,1.00
2019-04-30T12:54:23.989Z,0.90
2019-04-30T12:57:19.124Z,0.93
2019-04-30T12:59:48.252Z,0.60
2019-04-30T13:02:19.127Z,0.80
2019-04-30T13:04:49.294Z,0.80
2019-04-30T13:07:20.662Z,0.53
2019-04-30T13:09:50.667Z,0.90
2019-04-30T13:12:21.149Z,0.50
2019-04-30T13:14:54.382Z,0.60
2019-04-30T13:17:21.969Z,0.80
2019-04-30T13:19:51.383Z,0.87
2019-04-30T13:22:20.889Z,0.87
2019-04-30T13:24:50.381Z,0.70
2019-04-30T13:27:22.358Z,0.63
2019-04-30T13:30:09.882Z,0.70
2019-04-30T13:32:45.619Z,0.80
2019-04-30T13:35:15.102Z,0.90
2019-04-30T13:37:50.539Z,0.67
2019-04-30T13:40:41.920Z,0.57
2019-04-30T13:43:11.292Z,0.70
2019-04-30T13:45:40.631Z,0.93
2019-04-30T13:48:10.065Z,0.80
2019-04-30T13:50:39.445Z,0.70
2019-04-30T13:53:09.994Z,0.57
2019-04-30T13:55:45.653Z,0.67
2019-04-30T13:58:10.446Z,0.50
2019-04-30T14:00:39.868Z,0.60
2019-04-30T14:03:20.080Z,0.60
2019-04-30T14:05:51.616Z,0.57
2019-04-30T14:08:26.166Z,0.50
2019-04-30T14:10:55.511Z,0.50
2019-04-30T14:13:26.553Z,0.77
2019-04-30T14:15:55.964Z,0.60
2019-04-30T14:18:30.623Z,0.60
2019-04-30T14:20:56.474Z,0.60
2019-04-30T14:23:25.913Z,0.67
2019-04-30T14:25:56.639Z,0.60
2019-04-30T14:28:26.415Z,0.60
2019-04-30T14:30:55.767Z,0.50
2019-04-30T14:33:26.749Z,0.70
2019-04-30T14:35:56.351Z,0.60
2019-04-30T14:38:25.769Z,0.57
2019-04-30T14:40:55.612Z,1.00
2019-04-30T14:43:44.798Z,0.50
2019-04-30T14:46:31.658Z,0.73
2019-04-30T14:49:24.388Z,0.50
2019-04-30T14:51:54.612Z,0.63
2019-04-30T14:54:58.855Z,0.50
2019-04-30T14:57:59.663Z,0.50
2019-04-30T15:00:53.873Z,0.50
2019-04-30T15:03:24.563Z,1.60
2019-04-30T15:05:53.965Z,0.80
2019-04-30T15:08:23.335Z,0.70
2019-04-30T15:10:52.789Z,0.67
2019-04-30T15:13:22.145Z,0.30
2019-04-30T15:15:51.483Z,0.50
2019-04-30T15:18:20.947Z,0.50
2019-04-30T15:20:50.326Z,0.67
2019-04-30T15:23:28.382Z,0.30
2019-04-30T15:25:58.681Z,0.30
2019-04-30T15:28:32.187Z,0.40
2019-04-30T15:30:59.369Z,0.60
2019-04-30T15:33:47.693Z,0.40
2019-04-30T15:36:19.246Z,0.50
2019-04-30T15:39:02.149Z,0.53
2019-04-30T15:41:31.967Z,0.60
2019-04-30T15:44:01.320Z,0.70
2019-04-30T15:46:30.795Z,0.60
2019-04-30T15:49:00.233Z,0.47
2019-04-30T15:51:29.700Z,0.60
2019-04-30T15:53:59.178Z,0.50
2019-04-30T15:56:35.230Z,0.83
2019-04-30T15:59:16.739Z,0.43
2019-04-30T16:01:49.992Z,0.60
2019-04-30T16:04:24.657Z,0.60
2019-04-30T16:06:54.030Z,0.60
2019-04-30T16:09:29.288Z,0.50
2019-04-30T16:12:08.037Z,0.53
2019-04-30T16:14:38.408Z,0.37
2019-04-30T16:17:23.712Z,0.60
2019-04-30T16:19:53.160Z,0.50
2019-04-30T16:22:22.534Z,0.70
2019-04-30T16:24:54.471Z,0.80
2019-04-30T16:27:22.989Z,0.60
2019-04-30T16:29:52.335Z,0.40
2019-04-30T16:32:22.735Z,0.67
2019-04-30T16:34:52.123Z,0.57
2019-04-30T16:37:21.533Z,0.80
2019-04-30T16:39:50.899Z,0.60
2019-04-30T16:42:20.360Z,0.50
2019-04-30T16:44:49.751Z,0.60
2019-04-30T16:47:19.927Z,0.70
2019-04-30T16:49:49.759Z,0.40
2019-04-30T16:52:19.178Z,0.30
2019-04-30T16:54:49.733Z,0.50
2019-04-30T16:57:20.496Z,0.70
2019-04-30T16:59:51.011Z,0.50
2019-04-30T17:02:22.863Z,0.30
2019-04-30T17:05:17.091Z,0.43
2019-04-30T17:08:11.456Z,0.50
2019-04-30T17:10:52.895Z,0.50
2019-04-30T17:13:59.240Z,0.70
2019-04-30T17:16:30.182Z,0.60
2019-04-30T17:18:59.744Z,0.40
2019-04-30T17:21:29.665Z,0.60
2019-04-30T17:23:59.354Z,0.50
2019-04-30T17:26:28.700Z,0.60
2019-04-30T17:28:59.851Z,0.50
2019-04-30T17:31:29.395Z,0.70
2019-04-30T17:33:58.809Z,0.70
2019-04-30T17:36:29.787Z,0.80
2019-04-30T17:38:59.425Z,0.83
2019-04-30T17:41:28.901Z,0.60
2019-04-30T17:43:58.965Z,0.70
2019-04-30T17:46:28.981Z,0.40
2019-04-30T17:48:59.299Z,0.80
2019-04-30T17:51:28.992Z,1.70
2019-04-30T17:54:13.355Z,1.30
2019-04-30T17:56:43.584Z,1.30
2019-04-30T17:59:14.074Z,2.20
2019-04-30T18:01:49.508Z,3.77
2019-04-30T18:04:21.841Z,5.90
2019-04-30T18:06:50.663Z,4.67
2019-04-30T18:09:22.394Z,2.60
2019-04-30T18:11:51.802Z,2.60
2019-04-30T18:14:21.127Z,1.83
2019-04-30T18:16:50.500Z,2.70
2019-04-30T18:19:29.268Z,2.67
2019-04-30T18:22:03.288Z,2.40
2019-04-30T18:25:00.642Z,2.10
2019-04-30T18:27:43.863Z,2.47
2019-04-30T18:30:12.637Z,2.00
2019-04-30T18:32:42.063Z,1.87
2019-04-30T18:35:11.462Z,2.03
2019-04-30T18:37:40.854Z,2.60
2019-04-30T18:40:10.487Z,2.07
2019-04-30T18:42:39.854Z,1.40
2019-04-30T18:45:11.492Z,1.57
2019-04-30T18:47:40.842Z,1.37
2019-04-30T18:50:10.375Z,1.23
2019-04-30T18:52:40.368Z,1.60
2019-04-30T18:55:10.245Z,1.30
2019-04-30T18:57:39.562Z,1.00
2019-04-30T19:00:10.037Z,1.77
2019-04-30T19:02:40.498Z,1.40
2019-04-30T19:05:14.208Z,1.53
2019-04-30T19:07:54.712Z,1.30
2019-04-30T19:10:46.846Z,1.27
2019-04-30T19:13:33.875Z,1.30
2019-04-30T19:16:25.239Z,1.60
2019-04-30T19:18:59.258Z,1.40
2019-04-30T19:21:29.715Z,2.17
2019-04-30T19:23:59.043Z,1.90
2019-04-30T19:26:29.323Z,2.20
2019-04-30T19:28:59.075Z,2.60
2019-04-30T19:31:29.620Z,2.03
2019-04-30T19:33:59.170Z,2.03
2019-04-30T19:36:37.238Z,2.10
2019-04-30T19:38:59.812Z,1.93
2019-04-30T19:41:29.503Z,2.10
2019-04-30T19:43:58.933Z,1.60
2019-04-30T19:46:29.416Z,2.07
2019-04-30T19:48:58.975Z,1.67
2019-04-30T19:51:29.631Z,1.63
2019-04-30T19:53:59.888Z,1.30
2019-04-30T19:56:32.609Z,1.03
2019-04-30T19:59:05.254Z,1.10
2019-04-30T20:01:31.776Z,1.20
2019-04-30T20:04:01.153Z,1.30
2019-04-30T20:06:30.599Z,1.30
2019-04-30T20:09:00.826Z,1.30
2019-04-30T20:11:30.355Z,1.10
2019-04-30T20:13:59.827Z,1.00
2019-04-30T20:16:29.247Z,1.07
2019-04-30T20:18:59.193Z,1.03
2019-04-30T20:21:44.955Z,0.90
2019-04-30T20:23:59.863Z,1.00
2019-04-30T20:26:29.325Z,0.87
2019-04-30T20:28:59.133Z,1.33
2019-04-30T20:31:28.897Z,1.00
2019-04-30T20:33:59.407Z,1.20
2019-04-30T20:36:29.430Z,1.47
2019-04-30T20:39:17.791Z,1.33
2019-04-30T20:41:51.095Z,1.20
2019-04-30T20:44:20.464Z,1.03
2019-04-30T20:46:49.776Z,0.80
2019-04-30T20:49:19.330Z,0.90
2019-04-30T20:51:55.624Z,1.00
2019-04-30T20:54:19.904Z,1.00
2019-04-30T20:56:51.059Z,1.00
2019-04-30T20:59:20.318Z,0.90
2019-04-30T21:01:49.711Z,0.80
2019-04-30T21:04:20.832Z,0.90
2019-04-30T21:06:50.294Z,1.07
2019-04-30T21:09:19.642Z,0.90
2019-04-30T21:11:49.082Z,1.27
2019-04-30T21:14:19.240Z,0.80
2019-04-30T21:16:48.989Z,1.20
2019-04-30T21:19:18.452Z,1.53
2019-04-30T21:21:49.695Z,1.30
2019-04-30T21:24:19.391Z,1.20
2019-04-30T21:26:48.816Z,2.43
2019-04-30T21:29:18.891Z,1.70
2019-04-30T21:32:21.393Z,1.10
2019-04-30T21:35:15.504Z,2.67
2019-04-30T21:37:44.928Z,2.17
2019-04-30T21:40:14.470Z,1.93
2019-04-30T21:42:43.843Z,2.03
2019-04-30T21:45:13.416Z,1.70
2019-04-30T21:47:55.624Z,1.30
2019-04-30T21:50:13.994Z,1.30
2019-04-30T21:52:43.353Z,0.87
2019-04-30T21:55:12.741Z,1.30
2019-04-30T21:57:42.441Z,1.07
2019-04-30T22:00:14.446Z,1.30
2019-04-30T22:02:43.891Z,0.90
2019-04-30T22:05:13.384Z,0.93
2019-04-30T22:07:42.735Z,0.90
2019-04-30T22:10:12.092Z,1.10
2019-04-30T22:12:41.452Z,1.07
2019-04-30T22:15:14.295Z,1.60
2019-04-30T22:17:43.648Z,1.17
2019-04-30T22:20:13.000Z,0.90
2019-04-30T22:22:42.362Z,1.00
2019-04-30T22:25:11.759Z,1.13
2019-04-30T22:27:41.108Z,1.80
2019-04-30T22:30:10.864Z,1.57
2019-04-30T22:32:41.139Z,0.97
2019-04-30T22:35:38.360Z,1.00
2019-04-30T22:38:09.359Z,1.00
2019-04-30T22:40:39.251Z,0.87
2019-04-30T22:43:09.368Z,1.00
2019-04-30T22:45:44.727Z,1.00
2019-04-30T22:48:14.093Z,0.70
2019-04-30T22:50:43.436Z,0.80
2019-04-30T22:53:12.824Z,0.97
2019-04-30T22:55:42.298Z,0.90
2019-04-30T22:58:11.716Z,0.87
2019-04-30T23:00:43.961Z,0.90
2019-04-30T23:03:22.519Z,0.83
2019-04-30T23:05:51.965Z,1.00
2019-04-30T23:08:21.370Z,0.90
2019-04-30T23:10:50.755Z,1.00
2019-04-30T23:13:20.217Z,1.47
2019-04-30T23:15:53.271Z,1.30
2019-04-30T23:18:22.612Z,1.40
2019-04-30T23:20:52.090Z,1.20
2019-04-30T23:23:21.836Z,0.93
2019-04-30T23:25:51.267Z,1.20
2019-04-30T23:28:20.617Z,1.10
2019-04-30T23:30:49.982Z,0.93
2019-04-30T23:33:19.441Z,1.13
2019-04-30T23:35:48.840Z,0.70
2019-04-30T23:38:18.315Z,0.90
2019-04-30T23:40:50.637Z,1.33
2019-04-30T23:43:21.082Z,1.27
2019-04-30T23:45:50.531Z,1.10
2019-04-30T23:48:19.926Z,1.10
2019-04-30T23:50:49.352Z,1.50
2019-04-30T23:53:18.733Z,0.90
2019-04-30T23:55:48.083Z,1.00
2019-04-30T23:58:17.475Z,1.00
